Quesnel, British Columbia

3:55 AM PDT on August 30, 2015 (GMT -0700)
Quesnel | | Change Station
CLOSE
Current Station
Airport
Location: Quesnel,
Elevation: 1788 ft
Nearby Weather Stations

Elev 1788 ft 53.03 °N, 122.51 °W | Updated 55 minutes ago

Overcast
Overcast
55 °F
Feels Like 55 °F
N
7
Wind Variable Wind from SSE

Today is forecast to be nearly the same temperature as yesterday.

Today
High -- | Low -- °F
--% Chance of Precip.
Yesterday
High -- | Low -- °F
Precip. -- in
6:16 AM 8:03 PM
Full, 99% visible
Pressure 29.56 in
Visibility 9.0 miles
Clouds Scattered Clouds 10000 ft
Mostly Cloudy 15000 ft
Overcast 17000 ft
Dew Point 43 °F
Humidity 63%
Rainfall 0.00 in
Snow Depth Not available.
UV 0 out of 12
Pollen Not available.
Air Quality Not available.
Flu Activity Not available.
METAR CYQZ 301000Z AUTO 15006KT 140V200 9SM SCT100 BKN150 OVC170 13/06 A2953 RMK SLP008 DENSITY ALT 2300FT
Pressure 29.56 in
Visibility 9.0 miles
Clouds Scattered Clouds 10000 ft
Mostly Cloudy 15000 ft
Overcast 17000 ft
Dew Point 43 °F
Humidity 63%
Rainfall 0.00 in
Snow Depth Not available.
UV 0 out of 12
Pollen Not available.
Air Quality Not available.
Flu Activity Not available.
METAR CYQZ 301000Z AUTO 15006KT 140V200 9SM SCT100 BKN150 OVC170 13/06 A2953 RMK SLP008 DENSITY ALT 2300FT

10-Day Weather Forecast

×

Almanac

Astronomy

Aug. 30, 2015 Rise Set
Actual Time
Civil Twilight
Nautical Twilight
Astronomical Twilight
Moon
Length of Visible Light
Length of Day
Tomorrow will be .
, % of the Moon is Illuminated

Today's Extremes

Country Highs Country Lows

Community

WunderPhotos

Upload Photos

1,850,925 photos uploaded!

WunderBlogs® & News

Nearby

Air Quality

  Air Quality AQ Index Pollutant
Not available.

Snow Depth

Station Depth Elevation

Earthquake Activity

City Distance Mag. Time & Date
Minimum magnitude displayed is 2.5.

Coastal Water Temperatures

Place Temperature

Stations

Nearby Weather Stations

Station Location Temp. Windchill Dew Point Humidity Wind Precip. Elev Updated Type